createdAt,value
2019-01-19T00:00:28.253Z,12.90
2019-01-19T00:01:28.247Z,14.60
2019-01-19T00:02:28.235Z,14.80
2019-01-19T00:03:28.221Z,11.10
2019-01-19T00:04:28.240Z,7.90
2019-01-19T00:05:28.200Z,8.80
2019-01-19T00:06:28.188Z,7.50
2019-01-19T00:07:28.181Z,5.00
2019-01-19T00:08:28.169Z,6.30
2019-01-19T00:09:28.189Z,6.10
2019-01-19T00:10:28.158Z,6.00
2019-01-19T00:11:28.137Z,6.30
2019-01-19T00:12:28.123Z,5.70
2019-01-19T00:13:28.116Z,5.20
2019-01-19T00:14:28.134Z,5.90
2019-01-19T00:15:28.097Z,8.10
2019-01-19T00:16:28.085Z,12.80
2019-01-19T00:17:28.072Z,13.00
2019-01-19T00:18:28.064Z,13.00
2019-01-19T00:19:29.001Z,10.70
2019-01-19T00:20:31.003Z,9.00
2019-01-19T00:21:28.028Z,12.00
2019-01-19T00:22:28.019Z,14.00
2019-01-19T00:23:28.006Z,8.50
2019-01-19T00:24:28.886Z,11.90
2019-01-19T00:25:28.014Z,10.30
2019-01-19T00:26:27.976Z,10.50
2019-01-19T00:27:27.969Z,10.00
2019-01-19T00:28:27.955Z,12.90
2019-01-19T00:29:27.942Z,12.20
2019-01-19T00:30:27.969Z,13.10
2019-01-19T00:31:27.922Z,12.90
2019-01-19T00:32:27.914Z,18.30
2019-01-19T00:33:28.398Z,16.30
2019-01-19T00:34:33.964Z,15.40
2019-01-19T00:35:27.904Z,15.10
2019-01-19T00:36:27.872Z,12.80
2019-01-19T00:37:27.857Z,10.90
2019-01-19T00:38:27.848Z,8.40
2019-01-19T00:39:27.838Z,8.80
2019-01-19T00:40:27.854Z,7.80
2019-01-19T00:41:27.813Z,8.90
2019-01-19T00:42:27.805Z,9.40
2019-01-19T00:43:28.455Z,8.80
2019-01-19T00:44:27.786Z,8.30
2019-01-19T00:45:27.798Z,10.70
2019-01-19T00:46:27.761Z,9.20
2019-01-19T00:47:27.749Z,10.30
2019-01-19T00:48:27.737Z,11.00
2019-01-19T00:49:27.756Z,7.10
2019-01-19T00:50:27.718Z,8.70
2019-01-19T00:51:27.708Z,7.20
2019-01-19T00:52:27.696Z,8.00
2019-01-19T00:53:28.378Z,10.00
2019-01-19T00:54:27.704Z,7.80
2019-01-19T00:55:27.664Z,8.80
2019-01-19T00:56:28.670Z,9.20
2019-01-19T00:57:27.640Z,9.40
2019-01-19T00:58:27.632Z,10.80
2019-01-19T00:59:27.622Z,12.50
2019-01-19T01:00:27.648Z,12.40
2019-01-19T01:01:27.600Z,11.50
2019-01-19T01:02:27.589Z,8.40
2019-01-19T01:03:27.580Z,13.70
2019-01-19T01:04:27.569Z,14.70
2019-01-19T01:05:27.588Z,13.90
2019-01-19T01:06:27.543Z,11.40
2019-01-19T01:07:27.535Z,12.00
2019-01-19T01:08:27.527Z,10.70
2019-01-19T01:09:27.511Z,10.00
2019-01-19T01:10:27.531Z,11.50
2019-01-19T01:11:27.490Z,9.00
2019-01-19T01:12:27.479Z,9.30
2019-01-19T01:13:27.471Z,9.80
2019-01-19T01:14:27.459Z,8.50
2019-01-19T01:15:27.474Z,7.50
2019-01-19T01:16:27.435Z,8.20
2019-01-19T01:17:27.426Z,8.50
2019-01-19T01:18:27.415Z,7.40
2019-01-19T01:19:27.407Z,8.50
2019-01-19T01:20:27.422Z,7.70
2019-01-19T01:21:27.382Z,6.80
2019-01-19T01:22:27.374Z,6.00
2019-01-19T01:23:27.367Z,7.40
2019-01-19T01:24:27.351Z,7.00
2019-01-19T01:25:27.377Z,7.80
2019-01-19T01:26:27.329Z,7.00
2019-01-19T01:27:27.317Z,7.80
2019-01-19T01:28:27.337Z,7.90
2019-01-19T01:29:27.297Z,6.80
2019-01-19T01:30:27.286Z,8.60
2019-01-19T01:31:27.301Z,7.80
2019-01-19T01:32:27.267Z,10.30
2019-01-19T01:33:27.253Z,7.80
2019-01-19T01:34:27.240Z,8.30
2019-01-19T01:35:32.623Z,8.20
2019-01-19T01:36:27.243Z,9.00
2019-01-19T01:37:27.209Z,6.60
2019-01-19T01:38:27.203Z,8.10
2019-01-19T01:39:27.188Z,6.90
2019-01-19T01:40:28.135Z,10.50
2019-01-19T01:41:27.875Z,6.50
2019-01-19T01:42:27.156Z,7.80
2019-01-19T01:43:27.148Z,9.80
2019-01-19T01:44:27.138Z,8.90
2019-01-19T01:45:27.123Z,5.90
2019-01-19T01:46:27.155Z,7.30
2019-01-19T01:47:27.103Z,6.60
2019-01-19T01:48:27.091Z,8.70
2019-01-19T01:49:27.081Z,6.60
2019-01-19T01:50:27.077Z,9.30
2019-01-19T01:51:27.086Z,8.10
2019-01-19T01:52:27.218Z,8.60
2019-01-19T01:53:27.040Z,6.80
2019-01-19T01:54:27.026Z,6.70
2019-01-19T01:55:27.027Z,7.50
2019-01-19T01:56:27.038Z,8.50
2019-01-19T01:57:26.990Z,7.10
2019-01-19T01:58:26.985Z,6.20
2019-01-19T01:59:27.504Z,7.20
2019-01-19T02:00:26.958Z,5.70
2019-01-19T02:01:27.937Z,8.60
2019-01-19T02:02:26.944Z,8.90
2019-01-19T02:03:26.926Z,6.60
2019-01-19T02:04:26.919Z,7.20
2019-01-19T02:05:26.935Z,7.00
2019-01-19T02:06:26.894Z,9.40
2019-01-19T02:07:26.913Z,7.90
2019-01-19T02:08:26.873Z,9.70
2019-01-19T02:09:26.862Z,5.90
2019-01-19T02:10:26.850Z,8.30
2019-01-19T02:11:26.841Z,7.00
2019-01-19T02:12:26.856Z,9.40
2019-01-19T02:13:26.816Z,9.90
2019-01-19T02:14:26.805Z,8.40
2019-01-19T02:15:26.798Z,10.00
2019-01-19T02:16:26.784Z,9.10
2019-01-19T02:17:26.807Z,8.50
2019-01-19T02:18:26.764Z,10.50
2019-01-19T02:19:26.819Z,9.80
2019-01-19T02:20:26.744Z,9.80
2019-01-19T02:21:26.764Z,8.70
2019-01-19T02:22:26.719Z,15.90
2019-01-19T02:23:26.775Z,9.00
2019-01-19T02:24:26.695Z,9.80
2019-01-19T02:25:26.688Z,10.70
2019-01-19T02:26:26.675Z,7.90
2019-01-19T02:27:26.692Z,9.60
2019-01-19T02:28:26.655Z,6.50
2019-01-19T02:29:26.643Z,7.10
2019-01-19T02:30:26.632Z,6.60
2019-01-19T02:31:26.624Z,8.10
2019-01-19T02:32:26.640Z,9.00
2019-01-19T02:33:26.599Z,8.40
2019-01-19T02:34:26.591Z,6.40
2019-01-19T02:35:26.584Z,6.20
2019-01-19T02:36:26.566Z,10.20
2019-01-19T02:37:26.583Z,6.50
2019-01-19T02:38:26.545Z,8.70
2019-01-19T02:39:27.585Z,9.80
2019-01-19T02:40:26.523Z,6.40
2019-01-19T02:41:26.516Z,6.70
2019-01-19T02:42:26.529Z,9.80
2019-01-19T02:43:26.494Z,6.70
2019-01-19T02:44:26.481Z,7.40
2019-01-19T02:45:26.474Z,7.70
2019-01-19T02:46:26.458Z,7.40
2019-01-19T02:47:26.477Z,7.90
2019-01-19T02:48:26.437Z,6.30
2019-01-19T02:49:26.425Z,6.20
2019-01-19T02:50:26.414Z,5.80
2019-01-19T02:51:26.405Z,6.60
2019-01-19T02:52:26.425Z,6.90
2019-01-19T02:53:26.409Z,7.30
2019-01-19T02:54:26.373Z,7.00
2019-01-19T02:55:26.361Z,11.00
2019-01-19T02:56:26.350Z,7.20
2019-01-19T02:57:26.336Z,7.70
2019-01-19T02:58:26.357Z,7.60
2019-01-19T02:59:26.318Z,7.70
2019-01-19T03:00:26.305Z,7.90
2019-01-19T03:01:26.293Z,9.20
2019-01-19T03:02:26.288Z,8.00
2019-01-19T03:03:26.297Z,8.60
2019-01-19T03:04:26.258Z,8.30
2019-01-19T03:05:26.248Z,8.50
2019-01-19T03:06:26.239Z,10.40
2019-01-19T03:07:26.227Z,9.20
2019-01-19T03:08:26.243Z,9.50
2019-01-19T03:09:26.207Z,8.60
2019-01-19T03:10:26.191Z,8.90
2019-01-19T03:11:26.184Z,9.40
2019-01-19T03:12:26.170Z,7.60
2019-01-19T03:13:26.191Z,7.60
2019-01-19T03:14:26.151Z,8.20
2019-01-19T03:15:26.138Z,7.30
2019-01-19T03:16:26.125Z,8.30
2019-01-19T03:17:26.118Z,7.80
2019-01-19T03:18:26.135Z,9.00
2019-01-19T03:19:26.097Z,6.40
2019-01-19T03:20:26.081Z,9.20
2019-01-19T03:21:26.075Z,6.70
2019-01-19T03:22:26.061Z,8.00
2019-01-19T03:23:26.078Z,7.20
2019-01-19T03:24:26.071Z,7.80
2019-01-19T03:25:26.030Z,10.50
2019-01-19T03:26:26.017Z,9.40
2019-01-19T03:27:26.004Z,8.00
2019-01-19T03:28:26.001Z,7.00
2019-01-19T03:29:26.013Z,7.10
2019-01-19T03:30:25.974Z,7.40
2019-01-19T03:31:25.984Z,10.70
2019-01-19T03:32:25.949Z,8.90
2019-01-19T03:33:25.941Z,9.40
2019-01-19T03:34:25.955Z,7.10
2019-01-19T03:35:25.918Z,8.00
2019-01-19T03:36:25.904Z,9.90
2019-01-19T03:37:25.897Z,9.70
2019-01-19T03:38:25.884Z,9.00
2019-01-19T03:39:25.901Z,12.70
2019-01-19T03:40:25.861Z,11.50
2019-01-19T03:41:25.850Z,10.10
2019-01-19T03:42:25.839Z,10.60
2019-01-19T03:43:25.834Z,14.40
2019-01-19T03:44:25.842Z,14.40
2019-01-19T03:45:25.807Z,13.70
2019-01-19T03:46:25.795Z,10.30
2019-01-19T03:47:25.784Z,12.30
2019-01-19T03:48:25.770Z,11.30
2019-01-19T03:49:25.791Z,10.40
2019-01-19T03:50:25.751Z,9.30
2019-01-19T03:51:25.737Z,8.20
2019-01-19T03:52:25.725Z,7.00
2019-01-19T03:53:25.720Z,5.50
2019-01-19T03:54:25.735Z,6.40
2019-01-19T03:55:25.695Z,7.90
2019-01-19T03:56:25.681Z,4.70
2019-01-19T03:57:25.672Z,5.90
2019-01-19T03:58:25.663Z,6.50
2019-01-19T03:59:25.680Z,4.90
2019-01-19T04:00:25.639Z,5.20
2019-01-19T04:01:25.625Z,3.80
2019-01-19T04:02:25.616Z,4.10
2019-01-19T04:03:26.755Z,4.00
2019-01-19T04:04:25.637Z,4.30
2019-01-19T04:05:25.608Z,4.30
2019-01-19T04:06:25.573Z,5.10
2019-01-19T04:07:25.560Z,4.40
2019-01-19T04:08:25.547Z,5.10
2019-01-19T04:09:25.537Z,4.10
2019-01-19T04:10:25.557Z,4.40
2019-01-19T04:11:25.517Z,4.10
2019-01-19T04:12:25.505Z,3.80
2019-01-19T04:13:25.492Z,5.00
2019-01-19T04:14:25.474Z,4.20
2019-01-19T04:15:25.499Z,4.20
2019-01-19T04:16:25.488Z,3.90
2019-01-19T04:17:25.447Z,4.90
2019-01-19T04:18:25.441Z,5.00
2019-01-19T04:19:25.427Z,4.30
2019-01-19T04:20:25.417Z,4.10
2019-01-19T04:21:25.432Z,3.20
2019-01-19T04:22:25.405Z,4.40
2019-01-19T04:23:25.381Z,4.50
2019-01-19T04:24:25.372Z,4.00
2019-01-19T04:25:25.357Z,3.60
2019-01-19T04:26:25.373Z,5.60
2019-01-19T04:27:25.338Z,6.20
2019-01-19T04:28:25.324Z,4.40
2019-01-19T04:29:25.317Z,5.80
2019-01-19T04:30:25.304Z,5.40
2019-01-19T04:31:25.320Z,4.50
2019-01-19T04:32:25.280Z,4.60
2019-01-19T04:33:25.298Z,5.10
2019-01-19T04:34:25.255Z,6.00
2019-01-19T04:35:25.245Z,5.80
2019-01-19T04:36:25.233Z,5.10
2019-01-19T04:37:25.253Z,5.90
2019-01-19T04:38:25.219Z,6.80
2019-01-19T04:39:25.271Z,5.10
2019-01-19T04:40:25.189Z,6.10
2019-01-19T04:41:25.176Z,5.70
2019-01-19T04:42:25.195Z,4.50
2019-01-19T04:43:25.162Z,5.30
2019-01-19T04:44:25.145Z,4.90
2019-01-19T04:45:25.141Z,5.70
2019-01-19T04:46:25.126Z,4.10
2019-01-19T04:47:25.148Z,6.20
2019-01-19T04:48:25.103Z,5.00
2019-01-19T04:49:25.088Z,4.00
2019-01-19T04:50:25.075Z,5.20
2019-01-19T04:51:25.069Z,5.00
2019-01-19T04:52:25.080Z,4.10
2019-01-19T04:53:25.044Z,4.80
2019-01-19T04:54:25.032Z,3.60
2019-01-19T04:55:25.019Z,4.00
2019-01-19T04:56:25.005Z,4.30
2019-01-19T04:57:25.018Z,4.80
2019-01-19T04:58:24.985Z,3.90
2019-01-19T04:59:24.976Z,5.80
2019-01-19T05:00:24.963Z,4.20
2019-01-19T05:01:24.949Z,4.10
2019-01-19T05:02:24.969Z,5.60
2019-01-19T05:03:24.930Z,3.80
2019-01-19T05:04:24.917Z,8.90
2019-01-19T05:05:24.906Z,4.70
2019-01-19T05:06:30.347Z,5.10
2019-01-19T05:07:24.912Z,5.10
2019-01-19T05:08:24.872Z,4.10
2019-01-19T05:09:24.868Z,8.00
2019-01-19T05:10:24.848Z,6.00
2019-01-19T05:11:24.840Z,8.60
2019-01-19T05:12:24.855Z,6.00
2019-01-19T05:13:24.818Z,6.90
2019-01-19T05:14:24.805Z,6.90
2019-01-19T05:15:24.793Z,7.40
2019-01-19T05:16:24.788Z,9.40
2019-01-19T05:17:24.805Z,7.80
2019-01-19T05:18:24.760Z,7.70
2019-01-19T05:19:24.750Z,6.90
2019-01-19T05:20:24.738Z,8.40
2019-01-19T05:21:24.729Z,8.70
2019-01-19T05:22:24.744Z,7.20
2019-01-19T05:23:24.705Z,7.40
2019-01-19T05:24:24.690Z,6.30
2019-01-19T05:25:24.686Z,8.70
2019-01-19T05:26:24.665Z,8.20
2019-01-19T05:27:24.692Z,8.60
2019-01-19T05:28:24.647Z,8.00
2019-01-19T05:29:24.637Z,10.10
2019-01-19T05:30:24.622Z,10.50
2019-01-19T05:31:24.614Z,7.50
2019-01-19T05:32:24.625Z,7.50
2019-01-19T05:33:24.591Z,7.30
2019-01-19T05:34:24.578Z,11.30
2019-01-19T05:35:24.594Z,11.30
2019-01-19T05:36:24.561Z,9.40
2019-01-19T05:37:24.544Z,10.40
2019-01-19T05:38:24.566Z,9.90
2019-01-19T05:39:24.522Z,10.20
2019-01-19T05:40:24.509Z,9.40
2019-01-19T05:41:24.499Z,9.20
2019-01-19T05:42:24.484Z,9.40
2019-01-19T05:43:24.510Z,8.00
2019-01-19T05:44:24.464Z,8.20
2019-01-19T05:45:24.456Z,15.40
2019-01-19T05:46:24.439Z,19.10
2019-01-19T05:47:24.429Z,23.20
2019-01-19T05:48:24.448Z,26.90
2019-01-19T05:49:24.408Z,23.70
2019-01-19T05:50:24.405Z,14.00
2019-01-19T05:51:24.389Z,14.40
2019-01-19T05:52:24.375Z,19.80
2019-01-19T05:53:24.387Z,11.90
2019-01-19T05:54:24.348Z,14.10
2019-01-19T05:55:24.342Z,11.90
2019-01-19T05:56:24.324Z,13.40
2019-01-19T05:57:24.314Z,12.20
2019-01-19T05:58:24.331Z,12.30
2019-01-19T05:59:24.291Z,11.10
2019-01-19T06:00:24.279Z,9.90
2019-01-19T06:01:24.274Z,9.40
2019-01-19T06:02:24.290Z,12.00
2019-01-19T06:03:24.247Z,10.90
2019-01-19T06:04:24.239Z,11.30
2019-01-19T06:05:24.222Z,11.80
2019-01-19T06:06:24.209Z,9.70
2019-01-19T06:07:24.234Z,10.50
2019-01-19T06:08:24.188Z,11.00
2019-01-19T06:09:24.178Z,11.10
2019-01-19T06:10:24.168Z,218.50
2019-01-19T06:11:24.153Z,149.30
2019-01-19T06:12:24.169Z,30.40
2019-01-19T06:13:24.132Z,46.80
2019-01-19T06:14:24.116Z,37.10
2019-01-19T06:15:24.115Z,24.70
2019-01-19T06:16:24.094Z,14.30
2019-01-19T06:17:24.110Z,16.60
2019-01-19T06:18:24.073Z,11.90
2019-01-19T06:19:24.060Z,14.30
2019-01-19T06:20:24.051Z,12.90
2019-01-19T06:21:24.037Z,23.30
2019-01-19T06:22:24.055Z,15.10
2019-01-19T06:23:24.011Z,10.60
2019-01-19T06:24:24.012Z,24.80
2019-01-19T06:25:24.051Z,11.00
2019-01-19T06:26:23.983Z,21.10
2019-01-19T06:27:23.997Z,20.30
2019-01-19T06:28:23.953Z,25.60
2019-01-19T06:29:23.942Z,20.90
2019-01-19T06:30:23.934Z,26.90
2019-01-19T06:31:23.922Z,46.60
2019-01-19T06:32:23.935Z,34.80
2019-01-19T06:33:23.898Z,28.90
2019-01-19T06:34:23.887Z,32.80
2019-01-19T06:35:23.877Z,19.20
2019-01-19T06:36:23.863Z,18.20
2019-01-19T06:37:23.879Z,17.10
2019-01-19T06:38:23.842Z,17.00
2019-01-19T06:39:23.825Z,12.60
2019-01-19T06:40:23.816Z,13.50
2019-01-19T06:41:23.804Z,14.90
2019-01-19T06:42:24.468Z,13.00
2019-01-19T06:43:23.785Z,18.60
2019-01-19T06:44:23.767Z,20.30
2019-01-19T06:45:24.476Z,19.20
2019-01-19T06:46:23.747Z,33.90
2019-01-19T06:47:23.764Z,38.40
2019-01-19T06:48:23.722Z,44.20
2019-01-19T06:49:23.709Z,20.40
2019-01-19T06:50:23.708Z,14.20
2019-01-19T06:51:23.713Z,17.10
2019-01-19T06:52:23.672Z,41.30
2019-01-19T06:53:23.688Z,61.00
2019-01-19T06:54:23.647Z,43.70
2019-01-19T06:55:23.638Z,48.00
2019-01-19T06:56:23.629Z,60.60
2019-01-19T06:57:23.612Z,59.60
2019-01-19T06:58:23.631Z,61.00
2019-01-19T06:59:23.590Z,68.40
2019-01-19T07:00:23.578Z,67.10
2019-01-19T07:01:23.599Z,65.20
2019-01-19T07:02:23.553Z,66.40
2019-01-19T07:03:23.542Z,35.90
2019-01-19T07:04:23.559Z,41.20
2019-01-19T07:05:23.524Z,55.20
2019-01-19T07:06:23.506Z,41.00
2019-01-19T07:07:23.494Z,24.40
2019-01-19T07:08:23.513Z,31.90
2019-01-19T07:09:23.473Z,33.20
2019-01-19T07:10:23.458Z,33.20
2019-01-19T07:11:23.449Z,27.80
2019-01-19T07:12:23.434Z,25.80
2019-01-19T07:13:23.453Z,17.10
2019-01-19T07:14:23.420Z,13.90
2019-01-19T07:15:23.402Z,15.80
2019-01-19T07:16:23.388Z,15.10
2019-01-19T07:17:23.376Z,15.70
2019-01-19T07:18:23.410Z,21.50
2019-01-19T07:19:23.351Z,26.10
2019-01-19T07:20:23.337Z,22.50
2019-01-19T07:21:23.351Z,26.10
2019-01-19T07:22:23.320Z,23.30
2019-01-19T07:23:23.307Z,21.90
2019-01-19T07:24:23.326Z,30.60
2019-01-19T07:25:23.283Z,43.20
2019-01-19T07:26:23.272Z,50.10
2019-01-19T07:27:23.263Z,64.90
2019-01-19T07:28:23.247Z,46.00
2019-01-19T07:29:23.267Z,18.60
2019-01-19T07:30:23.226Z,19.10
2019-01-19T07:31:23.214Z,24.60
2019-01-19T07:32:23.204Z,32.60
2019-01-19T07:33:23.190Z,56.20
2019-01-19T07:34:23.215Z,127.70
2019-01-19T07:35:23.173Z,194.70
2019-01-19T07:36:23.159Z,94.80
2019-01-19T07:37:23.150Z,59.70
2019-01-19T07:38:23.138Z,37.40
2019-01-19T07:39:23.153Z,26.60
2019-01-19T07:40:23.114Z,28.10
2019-01-19T07:41:23.102Z,22.80
2019-01-19T07:42:23.091Z,19.40
2019-01-19T07:43:23.077Z,20.90
2019-01-19T07:44:23.103Z,22.00
2019-01-19T07:45:23.058Z,20.00
2019-01-19T07:46:23.045Z,16.00
2019-01-19T07:47:23.036Z,20.00
2019-01-19T07:48:23.031Z,20.80
2019-01-19T07:49:23.039Z,27.60
2019-01-19T07:50:23.000Z,27.80
2019-01-19T07:51:22.991Z,25.60
2019-01-19T07:52:22.979Z,24.60
2019-01-19T07:53:23.008Z,23.40
2019-01-19T07:54:22.958Z,27.30
2019-01-19T07:55:22.947Z,39.30
2019-01-19T07:56:22.935Z,47.50
2019-01-19T07:57:22.924Z,33.10
2019-01-19T07:58:22.943Z,29.90
2019-01-19T07:59:22.903Z,42.50
2019-01-19T08:00:22.892Z,20.40
2019-01-19T08:01:22.884Z,13.70
2019-01-19T08:02:22.874Z,17.20
2019-01-19T08:03:22.884Z,27.20
2019-01-19T08:04:22.846Z,20.60
2019-01-19T08:05:22.838Z,22.40
2019-01-19T08:06:22.831Z,20.60
2019-01-19T08:07:22.819Z,22.90
2019-01-19T08:08:22.836Z,23.10
2019-01-19T08:09:22.797Z,18.60
2019-01-19T08:10:22.791Z,18.70
2019-01-19T08:11:22.782Z,18.40
2019-01-19T08:12:22.796Z,12.40
2019-01-19T08:13:22.758Z,11.10
2019-01-19T08:14:22.778Z,10.80
2019-01-19T08:15:22.740Z,15.60
2019-01-19T08:16:22.728Z,13.50
2019-01-19T08:17:22.722Z,12.10
2019-01-19T08:18:22.740Z,13.10
2019-01-19T08:19:22.700Z,13.50
2019-01-19T08:20:22.691Z,14.40
2019-01-19T08:21:22.684Z,12.60
2019-01-19T08:22:22.675Z,16.90
2019-01-19T08:23:22.669Z,19.70
2019-01-19T08:24:22.693Z,27.90
2019-01-19T08:25:22.652Z,16.80
2019-01-19T08:26:22.644Z,16.70
2019-01-19T08:27:22.648Z,12.50
2019-01-19T08:28:22.662Z,11.40
2019-01-19T08:29:22.625Z,15.70
2019-01-19T08:30:22.621Z,15.30
2019-01-19T08:31:22.617Z,13.70
2019-01-19T08:32:22.636Z,12.10
2019-01-19T08:33:22.603Z,11.60
2019-01-19T08:34:22.631Z,12.10
2019-01-19T08:35:22.596Z,10.60
2019-01-19T08:36:22.586Z,11.00
2019-01-19T08:37:24.550Z,10.20
2019-01-19T08:38:22.607Z,10.50
2019-01-19T08:39:22.574Z,10.70
2019-01-19T08:40:22.579Z,12.70
2019-01-19T08:41:22.576Z,13.30
2019-01-19T08:42:22.566Z,14.20
2019-01-19T08:43:22.592Z,15.80
2019-01-19T08:44:22.557Z,16.40
2019-01-19T08:45:22.683Z,13.20
2019-01-19T08:46:22.549Z,13.00
2019-01-19T08:47:22.546Z,14.30
2019-01-19T08:48:22.620Z,15.10
2019-01-19T08:49:22.543Z,13.10
2019-01-19T08:50:22.535Z,14.80
2019-01-19T08:51:22.546Z,13.70
2019-01-19T08:52:22.528Z,13.80
2019-01-19T08:53:22.555Z,14.30
2019-01-19T08:54:22.524Z,14.30
2019-01-19T08:55:22.519Z,14.80
2019-01-19T08:56:22.518Z,15.80
2019-01-19T08:57:22.518Z,11.90
2019-01-19T08:58:22.537Z,12.30
2019-01-19T08:59:24.529Z,14.20
2019-01-19T09:00:22.511Z,17.60
2019-01-19T09:01:22.501Z,17.70
2019-01-19T09:02:22.507Z,16.70
2019-01-19T09:03:22.537Z,30.00
2019-01-19T09:04:22.495Z,26.90
2019-01-19T09:05:22.494Z,28.90
2019-01-19T09:06:22.493Z,23.50
2019-01-19T09:07:22.489Z,28.40
2019-01-19T09:08:22.518Z,20.00
2019-01-19T09:09:22.485Z,15.10
2019-01-19T09:10:22.486Z,29.00
2019-01-19T09:11:22.485Z,27.00
2019-01-19T09:12:22.482Z,23.10
2019-01-19T09:13:22.511Z,21.30
2019-01-19T09:14:22.487Z,17.80
2019-01-19T09:15:22.482Z,20.60
2019-01-19T09:16:22.480Z,18.60
2019-01-19T09:17:22.481Z,18.70
2019-01-19T09:18:22.500Z,14.60
2019-01-19T09:19:22.483Z,14.70
2019-01-19T09:20:22.537Z,11.30
2019-01-19T09:21:22.480Z,10.90
2019-01-19T09:22:22.480Z,10.60
2019-01-19T09:23:22.508Z,9.10
2019-01-19T09:24:22.484Z,9.00
2019-01-19T09:25:22.481Z,9.10
2019-01-19T09:26:22.483Z,8.70
2019-01-19T09:27:22.484Z,8.70
2019-01-19T09:28:22.514Z,9.40
2019-01-19T09:29:22.486Z,10.30
2019-01-19T09:30:22.487Z,11.30
2019-01-19T09:31:22.490Z,9.20
2019-01-19T09:32:22.496Z,9.30
2019-01-19T09:33:22.522Z,11.70
2019-01-19T09:34:22.503Z,10.10
2019-01-19T09:35:22.504Z,11.10
2019-01-19T09:36:22.503Z,10.10
2019-01-19T09:37:22.507Z,10.30
2019-01-19T09:38:22.538Z,11.00
2019-01-19T09:39:22.514Z,11.60
2019-01-19T09:40:22.520Z,9.40
2019-01-19T09:41:22.522Z,9.20
2019-01-19T09:42:22.520Z,11.00
2019-01-19T09:43:22.561Z,10.10
2019-01-19T09:44:22.532Z,8.30
2019-01-19T09:45:22.537Z,9.30
2019-01-19T09:46:22.539Z,10.10
2019-01-19T09:47:22.546Z,7.40
2019-01-19T09:48:22.581Z,7.80
2019-01-19T09:49:22.554Z,7.40
2019-01-19T09:50:22.561Z,8.70
2019-01-19T09:51:22.565Z,8.90
2019-01-19T09:52:22.571Z,8.80
2019-01-19T09:53:22.603Z,8.30
2019-01-19T09:54:22.603Z,7.30
2019-01-19T09:55:22.581Z,7.90
2019-01-19T09:56:22.586Z,8.10
2019-01-19T09:57:22.593Z,7.70
2019-01-19T09:58:22.599Z,6.40
2019-01-19T09:59:22.627Z,6.70
2019-01-19T10:00:22.604Z,5.90
2019-01-19T10:01:22.612Z,7.50
2019-01-19T10:02:22.617Z,6.50
2019-01-19T10:03:22.653Z,6.90
2019-01-19T10:04:22.627Z,7.00
2019-01-19T10:05:22.630Z,7.00
2019-01-19T10:06:22.639Z,7.20
2019-01-19T10:07:22.647Z,9.00
2019-01-19T10:08:22.678Z,7.10
2019-01-19T10:09:22.687Z,6.90
2019-01-19T10:10:23.018Z,6.40
2019-01-19T10:11:22.670Z,7.30
2019-01-19T10:12:22.681Z,8.10
2019-01-19T10:13:22.688Z,7.60
2019-01-19T10:14:22.717Z,6.90
2019-01-19T10:15:22.697Z,9.20
2019-01-19T10:16:22.705Z,9.00
2019-01-19T10:17:22.704Z,8.80
2019-01-19T10:18:22.720Z,9.50
2019-01-19T10:19:22.758Z,10.10
2019-01-19T10:20:22.732Z,10.00
2019-01-19T10:21:22.746Z,12.30
2019-01-19T10:22:22.744Z,12.00
2019-01-19T10:23:22.781Z,10.90
2019-01-19T10:24:22.767Z,12.00
2019-01-19T10:25:22.793Z,12.70
2019-01-19T10:26:22.772Z,9.40
2019-01-19T10:27:22.782Z,11.20
2019-01-19T10:28:22.787Z,10.60
2019-01-19T10:29:22.826Z,11.50
2019-01-19T10:30:22.800Z,7.40
2019-01-19T10:31:22.808Z,7.40
2019-01-19T10:32:22.816Z,6.40
2019-01-19T10:33:22.819Z,4.00
2019-01-19T10:34:22.858Z,3.70
2019-01-19T10:35:22.838Z,4.20
2019-01-19T10:36:22.848Z,4.20
2019-01-19T10:37:22.850Z,4.50
2019-01-19T10:38:22.862Z,5.50
2019-01-19T10:39:22.919Z,4.30
2019-01-19T10:40:22.887Z,2.70
2019-01-19T10:41:22.878Z,1.50
2019-01-19T10:42:22.893Z,2.60
2019-01-19T10:43:22.894Z,1.70
2019-01-19T10:44:22.902Z,5.70
2019-01-19T10:45:22.941Z,3.10
2019-01-19T10:46:22.917Z,6.90
2019-01-19T10:47:22.929Z,8.20
2019-01-19T10:48:22.930Z,8.60
2019-01-19T10:49:22.954Z,7.10
2019-01-19T10:50:22.973Z,3.20
2019-01-19T10:51:22.960Z,3.60
2019-01-19T10:52:22.966Z,2.70
2019-01-19T10:53:22.968Z,2.40
2019-01-19T10:54:22.978Z,1.70
2019-01-19T10:55:23.008Z,2.60
2019-01-19T10:56:22.988Z,1.90
2019-01-19T10:57:22.996Z,2.40
2019-01-19T10:58:23.012Z,1.70
2019-01-19T10:59:23.014Z,2.60
2019-01-19T11:00:23.044Z,3.10
2019-01-19T11:01:23.023Z,1.90
2019-01-19T11:02:23.032Z,2.70
2019-01-19T11:03:23.037Z,1.90
2019-01-19T11:04:23.047Z,1.60
2019-01-19T11:05:23.079Z,2.00
2019-01-19T11:06:23.059Z,3.10
2019-01-19T11:07:23.065Z,2.30
2019-01-19T11:08:24.057Z,3.00
2019-01-19T11:09:23.079Z,3.00
2019-01-19T11:10:23.116Z,4.20
2019-01-19T11:11:23.095Z,2.80
2019-01-19T11:12:23.101Z,2.60
2019-01-19T11:13:23.109Z,3.30
2019-01-19T11:14:23.113Z,5.20
2019-01-19T11:15:23.150Z,1.60
2019-01-19T11:16:23.126Z,2.70
2019-01-19T11:17:23.138Z,1.80
2019-01-19T11:18:23.142Z,2.10
2019-01-19T11:19:23.151Z,2.60
2019-01-19T11:20:23.199Z,3.50
2019-01-19T11:21:23.161Z,3.90
2019-01-19T11:22:23.169Z,3.60
2019-01-19T11:23:23.176Z,3.70
2019-01-19T11:24:23.185Z,2.80
2019-01-19T11:25:23.217Z,3.50
2019-01-19T11:26:23.195Z,1.80
2019-01-19T11:27:23.207Z,2.10
2019-01-19T11:28:23.217Z,1.70
2019-01-19T11:29:23.221Z,2.00
2019-01-19T11:30:23.255Z,2.30
2019-01-19T11:31:23.238Z,1.50
2019-01-19T11:32:23.243Z,4.50
2019-01-19T11:33:23.257Z,5.10
2019-01-19T11:34:23.261Z,6.00
2019-01-19T11:35:23.300Z,7.00
2019-01-19T11:36:23.307Z,7.60
2019-01-19T11:37:23.286Z,5.70
2019-01-19T11:38:23.293Z,5.90
2019-01-19T11:39:23.303Z,8.10
2019-01-19T11:40:23.342Z,5.30
2019-01-19T11:41:23.351Z,7.10
2019-01-19T11:42:23.330Z,6.80
2019-01-19T11:43:23.339Z,7.80
2019-01-19T11:44:23.350Z,7.60
2019-01-19T11:45:23.382Z,6.10
2019-01-19T11:46:23.393Z,6.40
2019-01-19T11:47:23.374Z,5.50
2019-01-19T11:48:23.381Z,7.40
2019-01-19T11:49:23.393Z,7.40
2019-01-19T11:50:23.429Z,7.20
2019-01-19T11:51:23.444Z,8.30
2019-01-19T11:52:23.418Z,7.60
2019-01-19T11:53:23.435Z,7.80
2019-01-19T11:54:23.440Z,7.60
2019-01-19T11:55:23.481Z,8.10
2019-01-19T11:56:23.461Z,7.70
2019-01-19T11:57:23.474Z,8.40
2019-01-19T11:58:23.484Z,7.40
2019-01-19T11:59:23.494Z,8.10
2019-01-19T12:00:23.532Z,7.90
2019-01-19T12:01:23.512Z,6.80
2019-01-19T12:02:23.523Z,9.90
2019-01-19T12:03:23.531Z,7.70
2019-01-19T12:04:23.539Z,7.30
2019-01-19T12:05:23.596Z,7.20
2019-01-19T12:06:23.567Z,7.50
2019-01-19T12:07:23.572Z,6.60
2019-01-19T12:08:23.579Z,6.10
2019-01-19T12:09:23.591Z,5.80
2019-01-19T12:10:23.632Z,5.70
2019-01-19T12:11:23.642Z,7.60
2019-01-19T12:12:23.623Z,7.60
2019-01-19T12:13:23.633Z,4.70
2019-01-19T12:14:23.642Z,6.60
2019-01-19T12:15:23.679Z,5.00
2019-01-19T12:16:23.692Z,4.80
2019-01-19T12:17:23.671Z,4.80
2019-01-19T12:18:23.680Z,6.10
2019-01-19T12:19:23.798Z,6.40
2019-01-19T12:20:23.729Z,5.50
2019-01-19T12:21:23.743Z,6.50
2019-01-19T12:22:23.723Z,4.60
2019-01-19T12:23:23.731Z,5.30
2019-01-19T12:24:23.741Z,6.00
2019-01-19T12:25:23.779Z,4.90
2019-01-19T12:26:23.793Z,5.00
2019-01-19T12:27:23.773Z,4.80
2019-01-19T12:28:23.785Z,4.20
2019-01-19T12:29:23.793Z,5.70
2019-01-19T12:30:23.830Z,5.30
2019-01-19T12:31:23.840Z,4.60
2019-01-19T12:32:23.822Z,5.00
2019-01-19T12:33:23.827Z,4.60
2019-01-19T12:34:23.846Z,3.70
2019-01-19T12:35:23.880Z,3.80
2019-01-19T12:36:23.894Z,5.50
2019-01-19T12:37:23.872Z,4.80
2019-01-19T12:38:27.011Z,5.00
2019-01-19T12:39:24.039Z,11.00
2019-01-19T12:40:23.957Z,8.80
2019-01-19T12:41:23.934Z,9.30
2019-01-19T12:42:23.914Z,6.40
2019-01-19T12:43:23.925Z,6.40
2019-01-19T12:44:23.938Z,4.40
2019-01-19T12:45:23.939Z,4.40
2019-01-19T12:46:23.973Z,3.00
2019-01-19T12:47:24.531Z,3.00
2019-01-19T12:48:23.966Z,2.60
2019-01-19T12:49:23.972Z,2.40
2019-01-19T12:50:23.978Z,3.20
2019-01-19T12:51:24.013Z,3.10
2019-01-19T12:52:24.533Z,5.00
2019-01-19T12:53:24.001Z,4.40
2019-01-19T12:54:24.010Z,4.30
2019-01-19T12:55:24.013Z,4.30
2019-01-19T12:56:24.049Z,3.50
2019-01-19T12:57:24.030Z,3.20
2019-01-19T12:58:24.033Z,2.80
2019-01-19T12:59:24.045Z,31.70
2019-01-19T13:00:24.045Z,39.20
2019-01-19T13:01:24.084Z,37.80
2019-01-19T13:02:24.061Z,5.40
2019-01-19T13:03:24.068Z,45.00
2019-01-19T13:04:24.068Z,58.50
2019-01-19T13:05:24.075Z,45.10
2019-01-19T13:06:24.107Z,9.20
2019-01-19T13:07:24.240Z,11.90